createdAt,value
2019-04-05T00:00:41.656Z,22.53
2019-04-05T00:05:37.573Z,23.37
2019-04-05T00:10:33.632Z,18.00
2019-04-05T00:15:29.543Z,21.87
2019-04-05T00:20:25.460Z,21.83
2019-04-05T00:25:21.447Z,19.93
2019-04-05T00:30:17.361Z,21.53
2019-04-05T00:35:14.493Z,20.07
2019-04-05T00:40:10.919Z,22.97
2019-04-05T00:45:07.643Z,24.53
2019-04-05T00:50:05.560Z,21.67
2019-04-05T00:55:01.577Z,23.47
2019-04-05T00:59:57.500Z,20.37
2019-04-05T01:04:53.434Z,25.13
2019-04-05T01:09:49.447Z,22.10
2019-04-05T01:14:45.368Z,23.13
2019-04-05T01:19:43.611Z,23.87
2019-04-05T01:24:40.205Z,25.33
2019-04-05T01:29:36.188Z,17.63
2019-04-05T01:34:32.165Z,24.00
2019-04-05T01:39:28.122Z,24.07
2019-04-05T01:44:24.391Z,24.90
2019-04-05T01:49:20.314Z,25.20
2019-04-05T01:54:19.653Z,25.30
2019-04-05T01:59:15.642Z,26.73
2019-04-05T02:04:11.597Z,23.70
2019-04-05T02:09:09.918Z,24.77
2019-04-05T02:14:05.932Z,25.83
2019-04-05T02:19:01.995Z,28.20
2019-04-05T02:24:11.500Z,23.60
2019-04-05T02:29:07.615Z,22.10
2019-04-05T02:34:03.638Z,24.50
2019-04-05T02:38:59.641Z,23.13
2019-04-05T02:43:57.270Z,23.17
2019-04-05T02:48:53.792Z,25.07
2019-04-05T02:53:53.765Z,26.70
2019-04-05T02:58:50.196Z,26.33
2019-04-05T03:03:46.216Z,23.73
2019-04-05T03:08:42.473Z,27.50
2019-04-05T03:13:42.197Z,25.50
2019-04-05T03:18:42.019Z,27.00
2019-04-05T03:23:39.551Z,24.77
2019-04-05T03:28:36.872Z,30.00
2019-04-05T03:33:33.396Z,25.70
2019-04-05T03:38:29.603Z,27.53
2019-04-05T03:43:25.625Z,28.50
2019-04-05T03:48:21.546Z,29.23
2019-04-05T03:53:17.670Z,26.77
2019-04-05T03:58:13.587Z,26.57
2019-04-05T04:03:09.612Z,24.70
2019-04-05T04:08:05.576Z,23.67
2019-04-05T04:13:01.600Z,25.40
2019-04-05T04:17:57.552Z,22.70
2019-04-05T04:22:53.569Z,20.60
2019-04-05T04:27:49.496Z,21.63
2019-04-05T04:32:45.592Z,21.30
2019-04-05T04:37:41.796Z,20.10
2019-04-05T04:42:37.806Z,21.10
2019-04-05T04:47:34.226Z,20.50
2019-04-05T04:52:31.489Z,21.47
2019-04-05T04:57:27.825Z,20.37
2019-04-05T05:02:23.844Z,21.23
2019-04-05T05:07:19.862Z,20.70
2019-04-05T05:12:15.903Z,20.33
2019-04-05T05:17:12.476Z,21.03
2019-04-05T05:22:08.748Z,21.10
2019-04-05T05:27:05.168Z,19.40
2019-04-05T05:32:01.942Z,21.13
2019-04-05T05:36:57.883Z,20.10
2019-04-05T05:41:53.801Z,18.70
2019-04-05T05:46:49.732Z,18.90
2019-04-05T05:51:45.624Z,17.00
2019-04-05T05:56:41.576Z,17.40
2019-04-05T06:01:37.501Z,15.93
2019-04-05T06:06:33.521Z,15.60
2019-04-05T06:11:29.537Z,16.53
2019-04-05T06:16:25.459Z,17.77
2019-04-05T06:21:21.854Z,16.50
2019-04-05T06:26:17.833Z,16.13
2019-04-05T06:31:13.831Z,19.30
2019-04-05T06:36:09.749Z,15.90
2019-04-05T06:41:05.770Z,17.00
2019-04-05T06:46:02.105Z,16.50
2019-04-05T06:50:58.063Z,16.63
2019-04-05T06:55:53.992Z,17.77
2019-04-05T07:00:56.847Z,18.80
2019-04-05T07:05:47.832Z,18.97
2019-04-05T07:10:45.375Z,18.47
2019-04-05T07:15:41.375Z,18.80
2019-04-05T07:20:37.287Z,15.83
2019-04-05T07:25:33.258Z,16.20
2019-04-05T07:30:29.199Z,17.87
2019-04-05T07:35:33.411Z,15.63
2019-04-05T07:40:23.635Z,15.27
2019-04-05T07:45:19.743Z,16.60
2019-04-05T07:50:15.764Z,16.10
2019-04-05T07:55:12.263Z,13.20
2019-04-05T08:00:12.088Z,17.50
2019-04-05T08:05:08.123Z,13.37
2019-04-05T08:10:07.749Z,17.00
2019-04-05T08:15:04.670Z,15.30
2019-04-05T08:20:00.590Z,16.90
2019-04-05T08:24:56.515Z,15.40
2019-04-05T08:29:52.473Z,16.10
2019-04-05T08:34:48.494Z,14.17
2019-04-05T08:39:46.624Z,13.20
2019-04-05T08:44:44.582Z,12.90
2019-04-05T08:49:44.971Z,11.50
2019-04-05T08:54:41.704Z,10.80
2019-04-05T08:59:41.914Z,12.50
2019-04-05T09:04:38.852Z,14.50
2019-04-05T09:09:34.867Z,11.87
2019-04-05T09:14:32.714Z,13.93
2019-04-05T09:19:34.415Z,11.40
2019-04-05T09:24:31.267Z,11.40
2019-04-05T09:29:27.910Z,11.80
2019-04-05T09:34:25.292Z,11.90
2019-04-05T09:39:22.082Z,11.33
2019-04-05T09:44:18.134Z,13.60
2019-04-05T09:49:14.076Z,11.27
2019-04-05T09:54:21.374Z,11.53
2019-04-05T09:59:17.397Z,11.40
2019-04-05T10:04:13.419Z,13.80
2019-04-05T10:09:09.340Z,12.00
2019-04-05T10:14:05.261Z,12.47
2019-04-05T10:19:01.302Z,13.50
2019-04-05T10:23:57.222Z,13.33
2019-04-05T10:28:53.187Z,12.37
2019-04-05T10:33:49.131Z,9.10
2019-04-05T10:38:45.048Z,12.30
2019-04-05T10:43:40.964Z,12.23
2019-04-05T10:48:36.886Z,14.03
2019-04-05T10:53:32.800Z,12.47
2019-04-05T10:58:28.785Z,15.90
2019-04-05T11:03:24.707Z,12.50
2019-04-05T11:08:20.619Z,15.30
2019-04-05T11:13:16.598Z,14.30
2019-04-05T11:18:12.520Z,14.67
2019-04-05T11:23:08.439Z,11.60
2019-04-05T11:28:04.404Z,13.93
2019-04-05T11:33:00.463Z,14.27
2019-04-05T11:37:56.482Z,13.23
2019-04-05T11:42:52.807Z,15.07
2019-04-05T11:47:49.141Z,13.97
2019-04-05T11:52:45.059Z,15.10
2019-04-05T11:57:41.918Z,13.97
2019-04-05T12:02:39.912Z,10.47
2019-04-05T12:07:35.831Z,12.80
2019-04-05T12:12:31.750Z,14.03
2019-04-05T12:17:27.695Z,12.30
2019-04-05T12:22:23.633Z,14.50
2019-04-05T12:27:20.844Z,13.07
2019-04-05T12:32:18.947Z,14.80
2019-04-05T12:37:14.863Z,15.17
2019-04-05T12:42:12.153Z,13.57
2019-04-05T12:47:08.852Z,14.77
2019-04-05T12:52:05.104Z,16.17
2019-04-05T12:57:01.021Z,14.37
2019-04-05T13:01:59.493Z,14.50
2019-04-05T13:06:54.806Z,15.30
2019-04-05T13:11:50.803Z,14.63
2019-04-05T13:16:49.377Z,14.20
2019-04-05T13:21:44.624Z,14.17
2019-04-05T13:26:42.053Z,14.90
2019-04-05T13:31:38.466Z,14.07
2019-04-05T13:36:34.369Z,13.80
2019-04-05T13:41:32.265Z,12.17
2019-04-05T13:46:28.144Z,14.87
2019-04-05T13:51:28.271Z,14.87
2019-04-05T13:56:21.971Z,10.13
2019-04-05T14:01:18.510Z,13.53
2019-04-05T14:06:15.853Z,13.10
2019-04-05T14:11:11.822Z,13.43
2019-04-05T14:16:07.805Z,13.87
2019-04-05T14:21:03.774Z,14.10
2019-04-05T14:26:00.400Z,13.93
2019-04-05T14:30:56.371Z,13.10
2019-04-05T14:35:52.526Z,13.37
2019-04-05T14:40:50.186Z,14.20
2019-04-05T14:45:46.098Z,12.83
2019-04-05T14:50:42.276Z,12.57
2019-04-05T14:55:38.741Z,13.40
2019-04-05T15:00:34.790Z,13.27
2019-04-05T15:05:30.806Z,13.57
2019-04-05T15:10:26.831Z,12.80
2019-04-05T15:15:22.854Z,13.77
2019-04-05T15:20:19.173Z,13.50
2019-04-05T15:25:21.268Z,13.03
2019-04-05T15:30:15.413Z,13.17
2019-04-05T15:35:11.530Z,11.33
2019-04-05T15:40:08.950Z,11.53
2019-04-05T15:45:08.360Z,13.30
2019-04-05T15:50:07.341Z,13.80
2019-04-05T15:55:07.578Z,14.20
2019-04-05T16:00:09.233Z,13.67
2019-04-05T16:05:14.690Z,13.73
2019-04-05T16:10:22.151Z,14.47
2019-04-05T16:15:21.179Z,14.40
2019-04-05T16:20:18.698Z,15.90
2019-04-05T16:25:15.492Z,16.60
2019-04-05T16:35:28.265Z,14.07
2019-04-05T16:40:27.099Z,15.50
2019-04-05T16:45:28.178Z,13.73
2019-04-05T16:50:26.448Z,15.83
2019-04-05T16:55:27.608Z,14.93
2019-04-05T17:00:45.280Z,15.97
2019-04-05T17:05:42.633Z,16.80
2019-04-05T17:10:44.146Z,17.53
2019-04-05T17:20:51.377Z,20.53
2019-04-05T17:25:49.410Z,21.00
2019-04-05T17:30:46.487Z,23.93
2019-04-05T17:35:42.498Z,23.37
2019-04-05T17:40:38.461Z,23.40
2019-04-05T17:45:35.213Z,23.33
2019-04-05T17:50:32.431Z,23.10
2019-04-05T17:55:31.565Z,26.43
2019-04-05T18:00:27.489Z,26.87
2019-04-05T18:05:25.613Z,27.90
2019-04-05T18:10:21.638Z,27.87
2019-04-05T18:15:17.561Z,25.87
2019-04-05T18:20:13.591Z,28.67
2019-04-05T18:25:09.667Z,33.67
2019-04-05T18:30:06.592Z,29.60
2019-04-05T18:35:04.218Z,28.10
2019-04-05T18:40:00.140Z,31.90
2019-04-05T18:44:56.065Z,31.00
2019-04-05T18:50:02.401Z,33.47
2019-04-05T18:54:50.501Z,32.03
2019-04-05T18:59:46.481Z,32.80
2019-04-05T19:04:42.402Z,34.90
2019-04-05T19:09:38.320Z,32.40
2019-04-05T19:14:34.245Z,33.40
2019-04-05T19:19:30.275Z,36.00
2019-04-05T19:24:26.174Z,35.50
2019-04-05T19:29:22.387Z,34.97
2019-04-05T19:49:14.531Z,36.20
2019-04-05T19:54:10.601Z,34.20
2019-04-05T19:59:06.525Z,35.40
2019-04-05T20:04:02.482Z,37.37
2019-04-05T20:08:58.596Z,35.30
2019-04-05T20:13:54.525Z,40.40
2019-04-05T20:18:50.447Z,40.17
2019-04-05T20:23:47.661Z,43.07
2019-04-05T20:28:43.989Z,41.80
2019-04-05T20:33:39.937Z,41.50
2019-04-05T20:38:35.930Z,37.17
2019-04-05T20:43:31.865Z,40.37
2019-04-05T20:48:27.793Z,40.37
2019-04-05T20:53:23.779Z,42.00
2019-04-05T20:58:19.830Z,41.80
2019-04-05T21:03:16.177Z,40.47
2019-04-05T21:08:12.069Z,40.93
2019-04-05T21:13:07.994Z,35.97
2019-04-05T21:18:04.011Z,38.17
2019-04-05T21:22:59.935Z,40.83
2019-04-05T21:27:55.911Z,42.00
2019-04-05T21:32:51.891Z,43.07
2019-04-05T21:37:47.806Z,40.30
2019-04-05T21:42:43.758Z,42.80
2019-04-05T21:47:39.734Z,44.53
2019-04-05T21:52:35.651Z,45.10
2019-04-05T21:57:31.573Z,41.77
2019-04-05T22:02:27.590Z,44.57
2019-04-05T22:07:23.620Z,42.30
2019-04-05T22:12:20.884Z,38.80
2019-04-05T22:17:16.809Z,44.40
2019-04-05T22:22:12.761Z,42.50
2019-04-05T22:27:08.671Z,43.23
2019-04-05T22:32:04.581Z,43.00
2019-04-05T22:37:00.498Z,41.07
2019-04-05T22:41:56.411Z,46.00
2019-04-05T22:46:52.433Z,44.63
2019-04-05T22:51:48.349Z,42.00
2019-04-05T22:56:44.272Z,45.57
2019-04-05T23:01:40.212Z,44.13
2019-04-05T23:06:36.166Z,44.87
2019-04-05T23:11:32.129Z,42.67
2019-04-05T23:16:28.047Z,45.43
2019-04-05T23:21:23.967Z,47.70
2019-04-05T23:26:19.890Z,44.07
2019-04-05T23:31:15.799Z,42.63
2019-04-05T23:36:11.801Z,45.30
2019-04-05T23:41:07.749Z,43.40
2019-04-05T23:46:03.766Z,46.93
2019-04-05T23:50:59.696Z,45.80
2019-04-05T23:55:55.615Z,45.27
